Time;durP1;ratioP1;P1;durP2;ratioP2;P2;SDS_P1;SDS_P2;PMS_P1;PMS_P2;Temp;Humidity;BMP_temperature;BMP_pressure;BME280_temperature;BME280_humidity;BME280_pressure;Samples;Min_cycle;Max_cycle;Signal;HPM_P1;HPM_P2
2021/05/08 00:01:10;;;;;;;3.30;2.65;;;;;;;;;;5006885;28;20029;-76
2021/05/08 00:03:35;;;;;;;3.20;2.55;;;;;;;;;;5005083;28;20651;-76
2021/05/08 00:06:02;;;;;;;4.07;2.53;;;;;;;;;;5007755;28;20034;-76
2021/05/08 00:08:28;;;;;;;5.47;2.47;;;;;;;;;;5008433;28;20037;-76
2021/05/08 00:10:53;;;;;;;3.80;2.60;;;;;;;;;;5001990;28;20293;-76
2021/05/08 00:13:18;;;;;;;3.15;2.45;;;;;;;;;;5007176;28;20025;-76
2021/05/08 00:15:44;;;;;;;3.55;2.70;;;;;;;;;;5005171;28;20372;-76
2021/05/08 00:18:09;;;;;;;4.10;2.78;;;;;;;;;;5006836;28;20348;-76
2021/05/08 00:20:34;;;;;;;3.40;2.47;;;;;;;;;;5007803;28;20116;-76
2021/05/08 00:23:00;;;;;;;2.92;2.40;;;;;;;;;;4999665;28;20432;-76
2021/05/08 00:25:25;;;;;;;3.13;2.58;;;;;;;;;;5006546;28;20101;-77
2021/05/08 00:27:50;;;;;;;2.95;2.60;;;;;;;;;;5004822;28;20030;-77
2021/05/08 00:30:16;;;;;;;3.47;2.63;;;;;;;;;;4999715;28;20018;-76
2021/05/08 00:32:41;;;;;;;2.72;2.28;;;;;;;;;;5002695;28;20084;-76
2021/05/08 00:35:06;;;;;;;3.10;2.42;;;;;;;;;;4995878;28;20029;-76
2021/05/08 00:37:32;;;;;;;4.07;2.25;;;;;;;;;;5000648;28;20399;-77
2021/05/08 00:39:57;;;;;;;2.30;2.00;;;;;;;;;;5002870;28;20018;-76
2021/05/08 00:42:22;;;;;;;4.10;2.47;;;;;;;;;;4990075;28;20117;-77
2021/05/08 00:44:47;;;;;;;2.70;2.20;;;;;;;;;;5004878;28;20026;-77
2021/05/08 00:47:14;;;;;;;2.40;2.20;;;;;;;;;;5008297;28;20117;-77
2021/05/08 00:49:39;;;;;;;2.75;2.10;;;;;;;;;;5003571;28;20030;-77
2021/05/08 00:52:05;;;;;;;2.95;2.38;;;;;;;;;;4993227;28;20038;-77
2021/05/08 00:54:33;;;;;;;3.33;2.50;;;;;;;;;;5007028;28;20451;-76
2021/05/08 00:56:59;;;;;;;3.35;2.33;;;;;;;;;;5008640;28;20087;-77
2021/05/08 00:59:24;;;;;;;2.78;2.30;;;;;;;;;;5007395;28;20026;-76
2021/05/08 01:01:49;;;;;;;3.10;2.40;;;;;;;;;;4992525;28;20030;-76
2021/05/08 01:04:15;;;;;;;3.10;2.40;;;;;;;;;;4995915;28;20030;-75
2021/05/08 01:06:40;;;;;;;3.22;2.45;;;;;;;;;;5010107;28;20456;-76
2021/05/08 01:09:06;;;;;;;2.22;2.03;;;;;;;;;;5006319;28;20020;-76
2021/05/08 01:11:31;;;;;;;3.10;2.47;;;;;;;;;;5005172;28;20041;-76
2021/05/08 01:13:57;;;;;;;3.33;2.50;;;;;;;;;;5007738;28;20510;-76
2021/05/08 01:16:22;;;;;;;2.63;2.20;;;;;;;;;;5007634;28;20457;-76
2021/05/08 01:18:51;;;;;;;2.42;2.10;;;;;;;;;;5007688;28;20117;-76
2021/05/08 01:21:19;;;;;;;2.38;2.00;;;;;;;;;;5005609;28;20039;-77
2021/05/08 01:23:45;;;;;;;2.75;2.30;;;;;;;;;;5007883;28;20076;-76
2021/05/08 01:26:10;;;;;;;2.55;2.00;;;;;;;;;;5008906;28;20025;-76
2021/05/08 01:28:36;;;;;;;2.20;2.00;;;;;;;;;;5007521;28;20018;-76
2021/05/08 01:31:01;;;;;;;3.83;2.40;;;;;;;;;;4989795;28;20401;-77
2021/05/08 01:33:26;;;;;;;2.95;2.03;;;;;;;;;;4988975;28;20408;-76
2021/05/08 01:35:53;;;;;;;2.78;1.95;;;;;;;;;;5001578;28;20404;-76
2021/05/08 01:38:18;;;;;;;2.33;1.95;;;;;;;;;;5008861;28;20030;-76
2021/05/08 01:40:44;;;;;;;2.35;2.08;;;;;;;;;;5006811;28;20033;-76
2021/05/08 01:43:09;;;;;;;2.38;2.13;;;;;;;;;;5005920;28;20385;-76
2021/05/08 01:45:34;;;;;;;2.47;2.20;;;;;;;;;;5008062;28;20079;-76
2021/05/08 01:48:02;;;;;;;3.00;2.33;;;;;;;;;;5008128;28;20422;-76
2021/05/08 01:50:27;;;;;;;2.38;2.00;;;;;;;;;;5006819;28;20030;-76
2021/05/08 01:52:53;;;;;;;2.78;2.17;;;;;;;;;;5008711;28;20046;-76
2021/05/08 01:55:19;;;;;;;2.55;2.20;;;;;;;;;;5008736;28;20121;-76
2021/05/08 01:57:46;;;;;;;2.30;1.90;;;;;;;;;;5007219;28;20030;-76
2021/05/08 02:00:13;;;;;;;2.08;1.90;;;;;;;;;;5007030;28;20502;-76
2021/05/08 02:02:38;;;;;;;2.58;2.20;;;;;;;;;;5002238;28;20029;-76
2021/05/08 02:05:05;;;;;;;2.25;2.05;;;;;;;;;;5003449;28;20026;-76
2021/05/08 02:07:30;;;;;;;3.03;2.23;;;;;;;;;;5009199;28;20025;-76
2021/05/08 02:09:55;;;;;;;2.40;2.00;;;;;;;;;;5006844;28;20030;-76
2021/05/08 02:12:21;;;;;;;2.42;2.00;;;;;;;;;;5009157;28;20542;-76
2021/05/08 02:14:48;;;;;;;2.38;2.10;;;;;;;;;;5008223;28;20105;-76
2021/05/08 02:17:13;;;;;;;;;;;;;;;;;;5009717;28;20439;-76
2021/05/08 02:19:39;;;;;;;2.40;2.15;;;;;;;;;;5005839;28;19992;-76
2021/05/08 02:22:06;;;;;;;2.33;2.05;;;;;;;;;;5007687;28;20029;-76
2021/05/08 02:24:31;;;;;;;4.00;2.33;;;;;;;;;;5006371;28;20033;-76
2021/05/08 02:26:56;;;;;;;2.25;2.05;;;;;;;;;;5007085;28;20030;-76
2021/05/08 02:29:22;;;;;;;2.88;2.33;;;;;;;;;;5006597;28;20021;-76
2021/05/08 02:31:47;;;;;;;2.60;2.10;;;;;;;;;;5005399;28;20037;-77
2021/05/08 02:34:12;;;;;;;2.72;2.20;;;;;;;;;;5004810;28;20038;-76
2021/05/08 02:36:37;;;;;;;2.67;2.15;;;;;;;;;;5006925;28;20129;-76
2021/05/08 02:39:03;;;;;;;3.20;2.20;;;;;;;;;;5005206;28;20419;-75
2021/05/08 02:41:28;;;;;;;2.78;2.20;;;;;;;;;;5007706;28;20849;-75
2021/05/08 02:43:55;;;;;;;2.60;2.20;;;;;;;;;;5002995;28;20156;-76
2021/05/08 02:46:21;;;;;;;3.08;2.20;;;;;;;;;;5008767;28;20022;-76
2021/05/08 02:48:46;;;;;;;2.90;2.20;;;;;;;;;;5007416;28;20428;-75
2021/05/08 02:51:11;;;;;;;2.10;1.90;;;;;;;;;;5004458;28;20018;-76
2021/05/08 02:53:39;;;;;;;3.20;2.33;;;;;;;;;;5006382;28;20508;-75
2021/05/08 02:56:04;;;;;;;;;;;;;;;;;;5006725;28;20290;-75
2021/05/08 02:58:29;;;;;;;3.38;2.20;;;;;;;;;;5007729;28;19917;-76
2021/05/08 03:00:54;;;;;;;2.33;2.10;;;;;;;;;;5007726;28;20025;-76
2021/05/08 03:03:20;;;;;;;5.72;2.20;;;;;;;;;;5006728;28;20037;-77
2021/05/08 03:05:45;;;;;;;2.67;2.10;;;;;;;;;;5006113;28;20025;-75
2021/05/08 03:08:10;;;;;;;2.70;2.10;;;;;;;;;;5007433;28;20495;-75
2021/05/08 03:10:35;;;;;;;2.78;2.15;;;;;;;;;;5005521;28;20052;-75
2021/05/08 03:13:01;;;;;;;2.80;2.10;;;;;;;;;;5007458;28;20033;-75
2021/05/08 03:15:27;;;;;;;5.47;2.50;;;;;;;;;;5011284;28;20065;-75
2021/05/08 03:17:52;;;;;;;2.55;2.13;;;;;;;;;;5011288;28;20136;-75
2021/05/08 03:20:22;;;;;;;3.03;2.40;;;;;;;;;;5009608;28;20568;-76
2021/05/08 03:22:47;;;;;;;3.53;2.40;;;;;;;;;;5008863;28;20286;-75
2021/05/08 03:25:17;;;;;;;2.72;2.22;;;;;;;;;;5010512;28;20022;-76
2021/05/08 03:27:43;;;;;;;2.70;2.30;;;;;;;;;;5009476;28;20028;-75
2021/05/08 03:30:08;;;;;;;2.53;2.13;;;;;;;;;;5008418;28;20025;-76
2021/05/08 03:32:33;;;;;;;3.35;2.20;;;;;;;;;;5007354;28;20512;-76
2021/05/08 03:34:58;;;;;;;3.50;2.38;;;;;;;;;;5008414;28;20030;-75
2021/05/08 03:37:24;;;;;;;2.53;2.20;;;;;;;;;;5011866;28;20026;-76
2021/05/08 03:39:49;;;;;;;3.17;2.30;;;;;;;;;;5010016;28;20022;-76
2021/05/08 03:42:14;;;;;;;3.92;2.30;;;;;;;;;;5008314;28;20048;-76
2021/05/08 03:44:42;;;;;;;3.83;2.67;;;;;;;;;;5008898;28;20025;-76
2021/05/08 03:47:09;;;;;;;;;;;;;;;;;;5005592;28;20033;-76
2021/05/08 03:49:34;;;;;;;3.15;2.10;;;;;;;;;;5008478;28;19960;-76
2021/05/08 03:52:02;;;;;;;2.80;2.15;;;;;;;;;;5006965;28;20053;-76
2021/05/08 03:54:27;;;;;;;2.80;2.30;;;;;;;;;;5009844;28;20029;-76
2021/05/08 03:56:52;;;;;;;3.28;2.42;;;;;;;;;;5000790;28;20038;-76
2021/05/08 03:59:18;;;;;;;2.30;2.10;;;;;;;;;;5009078;28;20052;-76
2021/05/08 04:01:43;;;;;;;2.45;2.20;;;;;;;;;;5011356;28;20024;-76
2021/05/08 04:04:09;;;;;;;2.60;2.17;;;;;;;;;;5008232;28;20037;-76
2021/05/08 04:06:36;;;;;;;3.70;2.38;;;;;;;;;;5007430;28;20045;-76
2021/05/08 04:09:02;;;;;;;2.72;2.30;;;;;;;;;;5000878;28;20476;-76
2021/05/08 04:11:27;;;;;;;2.70;2.28;;;;;;;;;;5008858;28;20034;-75
2021/05/08 04:13:52;;;;;;;3.03;2.25;;;;;;;;;;5008010;28;20102;-75
2021/05/08 04:16:17;;;;;;;2.80;2.42;;;;;;;;;;5007874;28;20034;-76
2021/05/08 04:18:42;;;;;;;3.15;2.35;;;;;;;;;;5001711;28;20025;-77
2021/05/08 04:21:08;;;;;;;3.72;2.40;;;;;;;;;;5007677;28;20080;-76
2021/05/08 04:23:33;;;;;;;3.55;2.63;;;;;;;;;;5008077;28;20116;-76
2021/05/08 04:25:58;;;;;;;2.80;2.38;;;;;;;;;;5010918;28;20590;-76
2021/05/08 04:28:24;;;;;;;4.03;2.80;;;;;;;;;;5004554;28;20026;-77
2021/05/08 04:30:49;;;;;;;3.58;2.80;;;;;;;;;;5007519;28;20026;-76
2021/05/08 04:33:14;;;;;;;4.43;2.80;;;;;;;;;;5008427;28;20598;-77
2021/05/08 04:35:42;;;;;;;3.95;3.00;;;;;;;;;;5009372;28;20811;-77
2021/05/08 04:38:07;;;;;;;6.15;2.67;;;;;;;;;;5014361;28;20030;-77
2021/05/08 04:40:32;;;;;;;3.03;2.60;;;;;;;;;;5008811;28;20151;-76
2021/05/08 04:42:57;;;;;;;3.22;2.58;;;;;;;;;;5008898;28;20109;-77
2021/05/08 04:45:25;;;;;;;4.03;2.97;;;;;;;;;;5008638;28;20030;-77
2021/05/08 04:47:50;;;;;;;;;;;;;;;;;;5009155;28;20030;-76
2021/05/08 04:50:15;;;;;;;3.50;2.78;;;;;;;;;;4998382;28;19916;-76
2021/05/08 04:52:41;;;;;;;3.58;2.80;;;;;;;;;;5005637;28;20161;-77
2021/05/08 04:55:06;;;;;;;3.10;2.50;;;;;;;;;;5009435;28;20021;-77
2021/05/08 04:57:31;;;;;;;3.70;2.83;;;;;;;;;;5006318;28;20032;-77
2021/05/08 04:59:56;;;;;;;4.65;2.60;;;;;;;;;;5008815;28;20029;-77
2021/05/08 05:02:22;;;;;;;3.30;2.70;;;;;;;;;;5008792;28;20026;-76
2021/05/08 05:04:47;;;;;;;3.55;2.63;;;;;;;;;;5008839;28;20322;-77
2021/05/08 05:07:12;;;;;;;3.33;2.70;;;;;;;;;;5002338;28;20057;-77
2021/05/08 05:09:37;;;;;;;2.95;2.53;;;;;;;;;;5001686;28;20455;-76
2021/05/08 05:12:03;;;;;;;2.95;2.53;;;;;;;;;;5005115;28;20392;-76
2021/05/08 05:14:28;;;;;;;4.07;2.60;;;;;;;;;;5006520;28;20487;-77
2021/05/08 05:16:53;;;;;;;3.35;2.67;;;;;;;;;;5002752;28;20030;-77
2021/05/08 05:19:19;;;;;;;3.70;2.63;;;;;;;;;;5007838;28;20030;-77
2021/05/08 05:21:46;;;;;;;3.88;2.70;;;;;;;;;;5006491;28;20048;-77
2021/05/08 05:24:12;;;;;;;;;;;;;;;;;;4999572;28;20033;-77
2021/05/08 05:26:37;;;;;;;3.03;2.60;;;;;;;;;;4995309;28;19917;-76
2021/05/08 05:29:02;;;;;;;4.95;3.03;;;;;;;;;;5008701;28;20467;-77
2021/05/08 05:31:28;;;;;;;3.22;2.45;;;;;;;;;;5009427;28;20459;-76
2021/05/08 05:33:53;;;;;;;3.75;3.00;;;;;;;;;;5009026;28;20026;-77
2021/05/08 05:36:18;;;;;;;5.38;2.70;;;;;;;;;;5006686;28;20030;-77
2021/05/08 05:38:46;;;;;;;4.18;2.78;;;;;;;;;;5010446;28;20048;-78
2021/05/08 05:41:11;;;;;;;;;;;;;;;;;;5010677;28;20101;-78
2021/05/08 05:43:36;;;;;;;4.15;2.90;;;;;;;;;;5016239;28;19960;-79
2021/05/08 05:46:02;;;;;;;5.57;3.20;;;;;;;;;;5014243;28;20017;-78
2021/05/08 05:48:27;;;;;;;3.92;3.30;;;;;;;;;;5010646;28;20057;-78
2021/05/08 05:50:53;;;;;;;5.22;3.28;;;;;;;;;;4993654;28;20425;-77
2021/05/08 05:53:18;;;;;;;3.80;3.20;;;;;;;;;;4997668;28;20029;-77
2021/05/08 05:55:43;;;;;;;4.43;3.20;;;;;;;;;;5010702;28;20037;-77
2021/05/08 05:58:11;;;;;;;4.30;3.60;;;;;;;;;;5006758;28;20037;-76
2021/05/08 06:00:36;;;;;;;;;;;;;;;;;;5010567;28;20022;-77
2021/05/08 06:03:01;;;;;;;3.70;2.80;;;;;;;;;;5010535;28;19917;-77
2021/05/08 06:05:26;;;;;;;3.80;3.28;;;;;;;;;;5005626;28;20026;-77
2021/05/08 06:07:52;;;;;;;4.28;3.28;;;;;;;;;;5002011;28;20415;-77
2021/05/08 06:10:17;;;;;;;3.90;3.40;;;;;;;;;;5010621;28;20144;-77
2021/05/08 06:12:42;;;;;;;3.85;3.00;;;;;;;;;;5011497;28;20049;-77
2021/05/08 06:15:09;;;;;;;4.07;3.22;;;;;;;;;;5011451;28;20558;-78
2021/05/08 06:17:34;;;;;;;4.13;3.13;;;;;;;;;;5011632;28;20030;-77
2021/05/08 06:20:03;;;;;;;4.03;3.20;;;;;;;;;;5011985;28;20029;-77
2021/05/08 06:22:28;;;;;;;4.60;3.20;;;;;;;;;;5009025;28;20069;-77
2021/05/08 06:24:53;;;;;;;4.43;3.00;;;;;;;;;;5007616;28;20069;-78
2021/05/08 06:27:18;;;;;;;4.60;2.90;;;;;;;;;;5009588;28;20364;-76
2021/05/08 06:29:44;;;;;;;4.07;2.92;;;;;;;;;;5008529;28;20054;-77
2021/05/08 06:32:09;;;;;;;3.10;2.78;;;;;;;;;;5011989;28;20022;-78
2021/05/08 06:34:34;;;;;;;3.30;2.63;;;;;;;;;;5009427;28;20072;-78
2021/05/08 06:37:00;;;;;;;4.03;2.33;;;;;;;;;;5003959;28;20079;-78
2021/05/08 06:39:26;;;;;;;4.38;2.50;;;;;;;;;;5010312;28;20037;-78
2021/05/08 06:41:51;;;;;;;2.45;2.15;;;;;;;;;;5009922;28;20032;-76
2021/05/08 06:44:16;;;;;;;2.90;2.25;;;;;;;;;;5012928;28;20194;-78
2021/05/08 06:46:42;;;;;;;2.97;2.15;;;;;;;;;;5010963;28;20045;-77
2021/05/08 06:49:07;;;;;;;3.28;2.08;;;;;;;;;;5022234;28;20049;-77
2021/05/08 06:51:32;;;;;;;3.05;2.00;;;;;;;;;;5031877;28;20017;-77
2021/05/08 06:53:57;;;;;;;2.60;1.80;;;;;;;;;;5028190;28;20056;-76
2021/05/08 06:56:23;;;;;;;3.88;1.85;;;;;;;;;;5000866;28;20897;-78
2021/05/08 06:58:50;;;;;;;2.75;1.80;;;;;;;;;;5010520;28;20033;-77
2021/05/08 07:01:15;;;;;;;2.60;1.88;;;;;;;;;;5011774;28;20383;-78
2021/05/08 07:03:40;;;;;;;2.50;1.90;;;;;;;;;;5016345;28;20487;-78
2021/05/08 07:06:05;;;;;;;2.97;1.80;;;;;;;;;;5010041;28;20510;-77
2021/05/08 07:08:31;;;;;;;2.78;1.90;;;;;;;;;;5004104;28;20018;-77
2021/05/08 07:10:56;;;;;;;3.45;1.90;;;;;;;;;;5008763;28;20045;-76
2021/05/08 07:13:21;;;;;;;2.78;1.75;;;;;;;;;;5010703;28;20021;-78
2021/05/08 07:15:49;;;;;;;1.95;1.65;;;;;;;;;;4996371;28;20022;-78
2021/05/08 07:18:15;;;;;;;2.00;1.60;;;;;;;;;;4999129;28;20068;-74
2021/05/08 07:20:42;;;;;;;2.65;1.70;;;;;;;;;;5004705;28;20026;-72
2021/05/08 07:23:08;;;;;;;1.48;1.35;;;;;;;;;;5009975;28;20553;-73
2021/05/08 07:25:38;;;;;;;3.22;1.50;;;;;;;;;;4999874;28;20682;-74
2021/05/08 07:28:23;;;;;;;2.97;1.73;;;;;;;;;;5000526;28;20140;-73
2021/05/08 07:30:50;;;;;;;2.35;1.77;;;;;;;;;;5004602;28;20220;-73
2021/05/08 07:33:15;;;;;;;1.85;1.50;;;;;;;;;;5006401;28;20125;-72
2021/05/08 07:35:41;;;;;;;2.60;1.50;;;;;;;;;;4990467;28;20187;-73
2021/05/08 07:38:07;;;;;;;2.40;1.73;;;;;;;;;;5002834;28;20108;-73
2021/05/08 07:40:33;;;;;;;2.35;1.60;;;;;;;;;;5005535;28;20026;-72
2021/05/08 07:42:58;;;;;;;2.85;1.70;;;;;;;;;;5001079;28;20348;-75
2021/05/08 07:45:24;;;;;;;3.05;1.80;;;;;;;;;;4995887;28;20684;-76
2021/05/08 07:47:49;;;;;;;2.45;1.67;;;;;;;;;;5007439;28;20018;-76
2021/05/08 07:50:15;;;;;;;1.92;1.58;;;;;;;;;;5005143;28;20086;-75
2021/05/08 07:52:40;;;;;;;2.42;1.65;;;;;;;;;;5002631;28;20527;-75
2021/05/08 07:55:08;;;;;;;3.10;1.77;;;;;;;;;;5004367;28;20202;-76
2021/05/08 07:57:33;;;;;;;2.15;1.70;;;;;;;;;;4996033;28;20022;-75
2021/05/08 08:00:01;;;;;;;2.92;1.85;;;;;;;;;;5007615;28;20041;-77
2021/05/08 08:02:26;;;;;;;2.28;1.60;;;;;;;;;;5005520;28;20212;-76
2021/05/08 08:04:51;;;;;;;2.15;1.70;;;;;;;;;;5006757;28;20528;-75
2021/05/08 08:07:16;;;;;;;2.08;1.70;;;;;;;;;;5001267;28;20033;-75
2021/05/08 08:09:43;;;;;;;1.70;1.50;;;;;;;;;;5002677;28;20041;-74
2021/05/08 08:12:09;;;;;;;3.15;2.08;;;;;;;;;;5004690;28;20025;-74
2021/05/08 08:14:34;;;;;;;1.92;1.60;;;;;;;;;;5003127;28;20033;-74
2021/05/08 08:16:59;;;;;;;2.40;1.50;;;;;;;;;;5003599;28;20022;-74
2021/05/08 08:19:24;;;;;;;2.35;1.50;;;;;;;;;;5002879;28;20027;-74
2021/05/08 08:21:49;;;;;;;3.13;1.50;;;;;;;;;;4999747;28;20033;-75
2021/05/08 08:24:15;;;;;;;2.08;1.52;;;;;;;;;;5021991;28;20034;-75
2021/05/08 08:26:40;;;;;;;1.95;1.50;;;;;;;;;;5005359;28;20125;-74
2021/05/08 08:29:05;;;;;;;2.80;1.65;;;;;;;;;;5004432;28;20937;-75
2021/05/08 08:31:30;;;;;;;3.40;2.45;;;;;;;;;;5006684;28;20025;-75
2021/05/08 08:33:56;;;;;;;3.30;2.00;;;;;;;;;;5005635;28;20101;-75
2021/05/08 08:36:21;;;;;;;2.30;1.73;;;;;;;;;;5037337;28;20032;-75
2021/05/08 08:38:46;;;;;;;2.83;1.80;;;;;;;;;;5004106;28;20048;-76
2021/05/08 08:41:12;;;;;;;2.90;1.55;;;;;;;;;;5002722;28;20734;-76
2021/05/08 08:43:42;;;;;;;2.33;1.65;;;;;;;;;;5000209;28;20056;-75
2021/05/08 08:46:09;;;;;;;1.88;1.40;;;;;;;;;;5000561;28;20069;-75
2021/05/08 08:48:34;;;;;;;2.10;1.60;;;;;;;;;;4997355;28;20056;-75
2021/05/08 08:50:59;;;;;;;1.92;1.40;;;;;;;;;;5003805;28;20015;-75
2021/05/08 08:53:25;;;;;;;3.15;1.40;;;;;;;;;;4999316;28;20034;-75
2021/05/08 08:55:55;;;;;;;2.25;1.45;;;;;;;;;;5007362;28;20022;-76
2021/05/08 08:58:28;;;;;;;1.65;1.38;;;;;;;;;;5008092;28;20107;-73
2021/05/08 09:01:00;;;;;;;1.90;1.33;;;;;;;;;;5001229;28;20373;-75
2021/05/08 09:03:25;;;;;;;2.05;1.50;;;;;;;;;;4987990;28;20026;-74
2021/05/08 09:05:50;;;;;;;1.40;1.20;;;;;;;;;;5000568;28;20072;-77
2021/05/08 09:08:16;;;;;;;2.45;1.20;;;;;;;;;;4993014;28;20074;-75
2021/05/08 09:10:42;;;;;;;1.30;1.25;;;;;;;;;;5002695;28;20068;-75
2021/05/08 09:13:13;;;;;;;1.70;1.40;;;;;;;;;;5003769;28;20096;-74
2021/05/08 09:15:40;;;;;;;3.40;1.50;;;;;;;;;;5005179;28;20073;-75
2021/05/08 09:18:06;;;;;;;3.10;1.53;;;;;;;;;;5000948;28;20075;-76
2021/05/08 09:20:43;;;;;;;4.38;1.60;;;;;;;;;;5010138;28;20562;-75
2021/05/08 09:23:08;;;;;;;;;;;;;;;;;;5007696;28;20061;-76
2021/05/08 09:25:33;;;;;;;1.30;1.20;;;;;;;;;;5004543;28;19913;-75
2021/05/08 09:27:59;;;;;;;1.35;1.20;;;;;;;;;;4990804;28;20385;-76
2021/05/08 09:30:28;;;;;;;2.03;1.30;;;;;;;;;;5001397;28;20018;-75
2021/05/08 09:32:53;;;;;;;1.48;1.20;;;;;;;;;;4999149;28;20022;-74
2021/05/08 09:35:20;;;;;;;1.07;1.07;;;;;;;;;;4992892;28;20436;-74
2021/05/08 09:37:45;;;;;;;1.20;1.10;;;;;;;;;;5006401;28;20351;-74
2021/05/08 09:40:15;;;;;;;1.95;1.30;;;;;;;;;;5002065;28;20174;-75
2021/05/08 09:42:44;;;;;;;2.10;1.30;;;;;;;;;;4999594;28;20109;-74
2021/05/08 09:45:10;;;;;;;1.85;1.38;;;;;;;;;;4998774;28;20022;-75
2021/05/08 09:47:35;;;;;;;1.48;1.30;;;;;;;;;;4994912;28;20451;-75
2021/05/08 09:50:00;;;;;;;1.70;1.30;;;;;;;;;;5001925;28;20026;-75
2021/05/08 09:52:25;;;;;;;1.92;1.10;;;;;;;;;;4998779;28;20048;-74
2021/05/08 09:55:03;;;;;;;1.48;1.10;;;;;;;;;;4993145;28;20660;-73
2021/05/08 09:57:28;;;;;;;1.20;1.10;;;;;;;;;;5004216;28;20026;-74
2021/05/08 09:59:54;;;;;;;1.67;1.20;;;;;;;;;;5006401;28;20107;-75
2021/05/08 10:02:20;;;;;;;1.27;1.05;;;;;;;;;;5000320;28;20084;-75
2021/05/08 10:04:48;;;;;;;2.58;1.13;;;;;;;;;;5000185;28;20033;-74
2021/05/08 10:07:13;;;;;;;2.97;1.20;;;;;;;;;;5001813;28;20052;-75
2021/05/08 10:09:41;;;;;;;1.35;1.00;;;;;;;;;;4990509;28;20018;-74
2021/05/08 10:12:08;;;;;;;1.40;1.10;;;;;;;;;;5000725;28;20475;-74
2021/05/08 10:14:34;;;;;;;2.60;1.23;;;;;;;;;;4999511;28;20068;-75
2021/05/08 10:16:59;;;;;;;1.23;1.08;;;;;;;;;;5004613;28;20088;-76
2021/05/08 10:19:27;;;;;;;1.15;1.10;;;;;;;;;;5002497;28;20455;-75
2021/05/08 10:21:53;;;;;;;1.80;1.10;;;;;;;;;;5003081;28;20397;-75
2021/05/08 10:24:19;;;;;;;2.03;1.20;;;;;;;;;;5009202;28;20034;-76
2021/05/08 10:26:45;;;;;;;1.30;1.20;;;;;;;;;;5007885;28;20036;-74
2021/05/08 10:29:10;;;;;;;1.20;1.10;;;;;;;;;;5003973;28;20373;-75
2021/05/08 10:31:35;;;;;;;1.80;1.20;;;;;;;;;;4993636;28;20026;-75
2021/05/08 10:34:01;;;;;;;1.92;1.10;;;;;;;;;;5004098;28;20048;-75
2021/05/08 10:36:45;;;;;;;1.33;1.02;;;;;;;;;;5010170;28;20623;-75
2021/05/08 10:39:10;;;;;;;1.42;1.20;;;;;;;;;;5005033;28;20610;-75
2021/05/08 10:41:48;;;;;;;1.48;1.00;;;;;;;;;;5010374;28;20037;-74
2021/05/08 10:44:34;;;;;;;3.10;1.20;;;;;;;;;;4998909;28;20105;-74
2021/05/08 10:47:04;;;;;;;1.42;1.10;;;;;;;;;;5005446;28;20022;-74
2021/05/08 10:49:29;;;;;;;0.93;0.88;;;;;;;;;;5014455;28;20136;-75
2021/05/08 10:51:58;;;;;;;0.90;0.85;;;;;;;;;;5008597;28;20050;-75
2021/05/08 10:54:43;;;;;;;1.20;1.02;;;;;;;;;;5019231;28;20093;-74
2021/05/08 10:57:14;;;;;;;1.23;0.93;;;;;;;;;;5019709;28;20041;-74
2021/05/08 10:59:58;;;;;;;1.10;1.00;;;;;;;;;;5019415;28;20030;-75
2021/05/08 11:02:45;;;;;;;2.08;1.25;;;;;;;;;;5014036;28;20026;-74
2021/05/08 11:05:21;;;;;;;1.17;1.08;;;;;;;;;;5000543;28;20077;-76
2021/05/08 11:07:47;;;;;;;1.70;1.10;;;;;;;;;;5010323;28;20113;-74
2021/05/08 11:10:48;;;;;;;1.85;1.00;;;;;;;;;;5012617;28;20118;-73
2021/05/08 11:13:17;;;;;;;1.77;1.20;;;;;;;;;;4928419;29;20023;-74
2021/05/08 11:15:55;;;;;;;1.05;0.80;;;;;;;;;;4991401;28;20424;-74
2021/05/08 11:18:30;;;;;;;0.70;0.70;;;;;;;;;;5003877;28;20026;-74
2021/05/08 11:20:56;;;;;;;0.82;0.80;;;;;;;;;;5004516;28;20069;-74
2021/05/08 11:23:21;;;;;;;1.48;1.00;;;;;;;;;;5002205;28;20026;-75
2021/05/08 11:25:46;;;;;;;1.00;0.80;;;;;;;;;;5004286;28;20365;-75
2021/05/08 11:28:15;;;;;;;1.75;0.98;;;;;;;;;;5001008;28;20081;-76
2021/05/08 11:30:53;;;;;;;1.45;0.80;;;;;;;;;;4999217;28;20076;-77
2021/05/08 11:33:27;;;;;;;0.88;0.77;;;;;;;;;;5003176;28;20029;-76
2021/05/08 11:36:04;;;;;;;0.90;0.70;;;;;;;;;;5009930;28;20018;-76
2021/05/08 11:38:30;;;;;;;2.10;0.85;;;;;;;;;;4987953;28;20445;-76
2021/05/08 11:40:55;;;;;;;1.33;0.80;;;;;;;;;;4991067;28;20584;-76
2021/05/08 11:43:24;;;;;;;3.17;1.03;;;;;;;;;;5001846;28;20513;-76
2021/05/08 11:45:50;;;;;;;1.30;0.90;;;;;;;;;;5004096;28;20049;-75
2021/05/08 11:48:17;;;;;;;0.83;0.80;;;;;;;;;;5007623;28;20407;-75
2021/05/08 11:50:46;;;;;;;0.73;0.70;;;;;;;;;;5003238;28;20019;-76
2021/05/08 11:53:15;;;;;;;2.15;0.90;;;;;;;;;;4996514;28;20025;-75
2021/05/08 11:55:43;;;;;;;1.10;0.90;;;;;;;;;;5000106;28;20488;-76
2021/05/08 11:58:09;;;;;;;1.60;0.90;;;;;;;;;;5004392;28;20447;-75
2021/05/08 12:00:35;;;;;;;1.27;0.70;;;;;;;;;;5009039;28;20518;-74
2021/05/08 12:03:10;;;;;;;0.95;0.85;;;;;;;;;;4997429;28;20380;-75
2021/05/08 12:05:36;;;;;;;2.17;0.90;;;;;;;;;;4989717;28;20449;-76
2021/05/08 12:08:01;;;;;;;1.03;0.93;;;;;;;;;;5006122;28;20057;-75
2021/05/08 12:10:26;;;;;;;1.63;0.90;;;;;;;;;;5011588;28;20021;-75
2021/05/08 12:12:56;;;;;;;1.53;0.90;;;;;;;;;;5004584;28;20026;-75
2021/05/08 12:15:28;;;;;;;1.23;0.90;;;;;;;;;;5015609;28;20021;-75
2021/05/08 12:17:57;;;;;;;1.20;0.80;;;;;;;;;;5004082;28;20014;-76
2021/05/08 12:20:23;;;;;;;2.05;1.38;;;;;;;;;;5008921;28;20052;-76
2021/05/08 12:22:52;;;;;;;2.57;0.83;;;;;;;;;;5003808;28;20072;-75
2021/05/08 12:25:19;;;;;;;3.35;1.00;;;;;;;;;;4993144;28;20558;-76
2021/05/08 12:27:44;;;;;;;;;;;;;;;;;;5001260;28;20026;-76
2021/05/08 12:30:10;;;;;;;1.17;0.80;;;;;;;;;;5010211;28;19920;-75
2021/05/08 12:32:46;;;;;;;2.90;0.90;;;;;;;;;;5009523;28;20412;-75
2021/05/08 12:35:14;;;;;;;0.70;0.68;;;;;;;;;;5008794;28;20393;-75
2021/05/08 12:37:39;;;;;;;1.35;0.95;;;;;;;;;;4998196;28;20046;-75
2021/05/08 12:40:05;;;;;;;0.70;0.70;;;;;;;;;;4995363;28;20750;-75
2021/05/08 12:42:49;;;;;;;1.93;0.97;;;;;;;;;;5009047;28;20443;-74
2021/05/08 12:45:14;;;;;;;1.33;0.80;;;;;;;;;;5004936;28;20027;-74
2021/05/08 12:47:41;;;;;;;1.35;0.93;;;;;;;;;;4996276;28;20080;-75
2021/05/08 12:50:11;;;;;;;1.40;0.85;;;;;;;;;;4995458;28;20026;-74
2021/05/08 12:52:40;;;;;;;1.45;0.95;;;;;;;;;;4994858;28;20095;-74
2021/05/08 12:55:20;;;;;;;0.82;0.80;;;;;;;;;;5006594;28;20034;-75
2021/05/08 12:57:46;;;;;;;0.90;0.80;;;;;;;;;;5007409;28;20543;-75
2021/05/08 13:00:14;;;;;;;2.50;0.90;;;;;;;;;;5008839;28;20034;-75
2021/05/08 13:02:41;;;;;;;1.17;0.90;;;;;;;;;;5007977;28;20469;-75
2021/05/08 13:05:16;;;;;;;0.80;0.80;;;;;;;;;;5007646;28;20109;-75
2021/05/08 13:08:01;;;;;;;0.70;0.70;;;;;;;;;;5000125;28;20030;-75
2021/05/08 13:10:31;;;;;;;0.95;0.88;;;;;;;;;;5000159;28;20018;-75
2021/05/08 13:12:58;;;;;;;0.70;0.70;;;;;;;;;;5007718;28;20017;-74
2021/05/08 13:15:25;;;;;;;2.35;0.90;;;;;;;;;;5003581;28;20026;-74
2021/05/08 13:17:51;;;;;;;0.88;0.70;;;;;;;;;;4994862;28;20113;-74
2021/05/08 13:20:18;;;;;;;0.75;0.70;;;;;;;;;;5014764;28;20100;-75
2021/05/08 13:22:44;;;;;;;0.80;0.80;;;;;;;;;;5012186;28;20037;-74
2021/05/08 13:25:14;;;;;;;3.00;0.80;;;;;;;;;;5008148;28;20038;-74
2021/05/08 13:27:43;;;;;;;0.80;0.80;;;;;;;;;;5007104;28;20059;-74
2021/05/08 13:30:09;;;;;;;0.63;0.63;;;;;;;;;;5006951;28;20014;-75
2021/05/08 13:32:35;;;;;;;2.78;0.80;;;;;;;;;;5006631;28;20112;-75
2021/05/08 13:35:00;;;;;;;0.82;0.80;;;;;;;;;;5003672;28;20168;-75
2021/05/08 13:37:25;;;;;;;3.40;0.80;;;;;;;;;;4999726;28;20120;-74
2021/05/08 13:39:51;;;;;;;0.60;0.60;;;;;;;;;;5007350;28;20195;-74
2021/05/08 13:42:16;;;;;;;1.52;1.02;;;;;;;;;;5008600;28;20018;-74
2021/05/08 13:44:42;;;;;;;1.42;0.80;;;;;;;;;;5008200;28;20029;-75
2021/05/08 13:47:09;;;;;;;1.85;1.00;;;;;;;;;;5001526;28;20444;-75
2021/05/08 13:49:34;;;;;;;;;;;;;;;;;;5005602;28;20018;-75
2021/05/08 13:51:59;;;;;;;1.70;0.73;;;;;;;;;;5004498;28;19913;-75
2021/05/08 13:54:25;;;;;;;0.87;0.60;;;;;;;;;;4991960;28;20030;-75
2021/05/08 13:56:50;;;;;;;0.70;0.70;;;;;;;;;;5000848;28;20479;-75
2021/05/08 13:59:15;;;;;;;0.80;0.73;;;;;;;;;;5004469;28;20393;-76
2021/05/08 14:01:40;;;;;;;1.13;1.00;;;;;;;;;;5004118;28;20036;-76
2021/05/08 14:04:06;;;;;;;0.70;0.60;;;;;;;;;;5008092;28;20056;-76
2021/05/08 14:06:31;;;;;;;1.03;0.87;;;;;;;;;;5006083;28;20442;-76
2021/05/08 14:08:56;;;;;;;1.83;0.70;;;;;;;;;;5000692;28;20021;-76
2021/05/08 14:11:21;;;;;;;0.80;0.60;;;;;;;;;;5008228;28;20022;-76
2021/05/08 14:13:50;;;;;;;1.13;0.70;;;;;;;;;;5007896;28;20021;-75
2021/05/08 14:16:15;;;;;;;1.65;0.80;;;;;;;;;;5007050;28;20411;-76
2021/05/08 14:18:40;;;;;;;0.60;0.60;;;;;;;;;;4998566;28;20029;-75
2021/05/08 14:21:05;;;;;;;1.10;0.70;;;;;;;;;;5006703;28;20368;-76
2021/05/08 14:23:31;;;;;;;0.73;0.70;;;;;;;;;;5006127;28;20028;-75
2021/05/08 14:25:56;;;;;;;0.73;0.70;;;;;;;;;;5004300;28;20615;-75
2021/05/08 14:28:21;;;;;;;0.57;0.50;;;;;;;;;;5026195;28;20332;-75
2021/05/08 14:30:46;;;;;;;0.60;0.60;;;;;;;;;;5016690;28;20022;-75
2021/05/08 14:33:12;;;;;;;0.60;0.60;;;;;;;;;;5003906;28;20021;-75
2021/05/08 14:35:37;;;;;;;0.67;0.67;;;;;;;;;;5003648;28;20026;-75
2021/05/08 14:38:05;;;;;;;0.80;0.80;;;;;;;;;;4999135;28;20022;-75
2021/05/08 14:40:33;;;;;;;0.85;0.65;;;;;;;;;;5004883;28;20040;-75
2021/05/08 14:42:58;;;;;;;0.50;0.50;;;;;;;;;;4993231;28;20632;-75